sensor_id;sensor_type;location;lat;lon;timestamp;temperature;humidity
24250;DHT22;12379;49.820;8.648;2023-05-02T00:01:39;13.10;99.90
24250;DHT22;12379;49.820;8.648;2023-05-02T00:04:05;13.10;99.90
24250;DHT22;12379;49.820;8.648;2023-05-02T00:06:31;13.10;99.90
24250;DHT22;12379;49.820;8.648;2023-05-02T00:08:57;13.10;99.90
24250;DHT22;12379;49.820;8.648;2023-05-02T00:11:22;13.10;99.90
24250;DHT22;12379;49.820;8.648;2023-05-02T00:13:49;13.00;99.90
24250;DHT22;12379;49.820;8.648;2023-05-02T00:16:14;13.00;99.90
24250;DHT22;12379;49.820;8.648;2023-05-02T00:18:40;13.00;99.90
24250;DHT22;12379;49.820;8.648;2023-05-02T00:21:05;13.00;99.90
24250;DHT22;12379;49.820;8.648;2023-05-02T00:23:32;13.00;99.90
24250;DHT22;12379;49.820;8.648;2023-05-02T00:25:57;13.00;99.90
24250;DHT22;12379;49.820;8.648;2023-05-02T00:28:23;12.90;99.90
24250;DHT22;12379;49.820;8.648;2023-05-02T00:30:48;12.90;99.90
24250;DHT22;12379;49.820;8.648;2023-05-02T00:33:14;12.90;99.90
24250;DHT22;12379;49.820;8.648;2023-05-02T00:35:40;12.90;99.90
24250;DHT22;12379;49.820;8.648;2023-05-02T00:38:06;13.00;99.90
24250;DHT22;12379;49.820;8.648;2023-05-02T00:40:43;12.90;99.90
24250;DHT22;12379;49.820;8.648;2023-05-02T00:43:10;12.90;99.90
24250;DHT22;12379;49.820;8.648;2023-05-02T00:45:36;12.80;99.90
24250;DHT22;12379;49.820;8.648;2023-05-02T00:48:05;12.70;99.90
24250;DHT22;12379;49.820;8.648;2023-05-02T00:50:31;12.60;99.90
24250;DHT22;12379;49.820;8.648;2023-05-02T00:52:59;12.50;99.90
24250;DHT22;12379;49.820;8.648;2023-05-02T00:55:25;12.50;99.90
24250;DHT22;12379;49.820;8.648;2023-05-02T00:57:51;12.40;99.90
24250;DHT22;12379;49.820;8.648;2023-05-02T01:00:17;12.30;99.90
24250;DHT22;12379;49.820;8.648;2023-05-02T01:02:49;12.20;99.90
24250;DHT22;12379;49.820;8.648;2023-05-02T01:05:27;12.10;99.90
24250;DHT22;12379;49.820;8.648;2023-05-02T01:08:09;12.10;99.90
24250;DHT22;12379;49.820;8.648;2023-05-02T01:10:56;12.10;99.90
24250;DHT22;12379;49.820;8.648;2023-05-02T01:13:27;11.70;99.90
24250;DHT22;12379;49.820;8.648;2023-05-02T01:15:55;11.70;99.90
24250;DHT22;12379;49.820;8.648;2023-05-02T01:18:24;11.70;99.90
24250;DHT22;12379;49.820;8.648;2023-05-02T01:21:00;11.60;99.90
24250;DHT22;12379;49.820;8.648;2023-05-02T01:29:10;11.50;99.90
24250;DHT22;12379;49.820;8.648;2023-05-02T01:31:41;11.50;99.90
24250;DHT22;12379;49.820;8.648;2023-05-02T01:34:10;11.40;99.90
24250;DHT22;12379;49.820;8.648;2023-05-02T01:36:40;11.40;99.90
24250;DHT22;12379;49.820;8.648;2023-05-02T01:39:09;11.30;99.90
24250;DHT22;12379;49.820;8.648;2023-05-02T01:41:35;11.30;99.90
24250;DHT22;12379;49.820;8.648;2023-05-02T01:44:03;11.20;99.90
24250;DHT22;12379;49.820;8.648;2023-05-02T01:46:35;11.10;99.90
24250;DHT22;12379;49.820;8.648;2023-05-02T01:49:06;11.10;99.90
24250;DHT22;12379;49.820;8.648;2023-05-02T01:51:34;11.00;99.90
24250;DHT22;12379;49.820;8.648;2023-05-02T01:54:05;11.00;99.90
24250;DHT22;12379;49.820;8.648;2023-05-02T01:56:35;11.00;99.90
24250;DHT22;12379;49.820;8.648;2023-05-02T01:59:04;11.00;99.90
24250;DHT22;12379;49.820;8.648;2023-05-02T02:01:30;10.90;99.90
24250;DHT22;12379;49.820;8.648;2023-05-02T02:03:57;10.90;99.90
24250;DHT22;12379;49.820;8.648;2023-05-02T02:06:25;10.80;99.90
24250;DHT22;12379;49.820;8.648;2023-05-02T02:08:51;10.80;99.90
24250;DHT22;12379;49.820;8.648;2023-05-02T02:11:23;10.70;99.90
24250;DHT22;12379;49.820;8.648;2023-05-02T02:13:57;10.70;99.90
24250;DHT22;12379;49.820;8.648;2023-05-02T02:16:29;10.50;99.90
24250;DHT22;12379;49.820;8.648;2023-05-02T02:18:55;10.50;99.90
24250;DHT22;12379;49.820;8.648;2023-05-02T02:21:22;10.50;99.90
24250;DHT22;12379;49.820;8.648;2023-05-02T02:23:53;10.50;99.90
24250;DHT22;12379;49.820;8.648;2023-05-02T02:26:20;10.40;99.90
24250;DHT22;12379;49.820;8.648;2023-05-02T02:28:47;10.40;99.90
24250;DHT22;12379;49.820;8.648;2023-05-02T02:31:12;10.30;99.90
24250;DHT22;12379;49.820;8.648;2023-05-02T02:33:39;10.20;99.90
24250;DHT22;12379;49.820;8.648;2023-05-02T02:44:42;10.20;99.90
24250;DHT22;12379;49.820;8.648;2023-05-02T02:47:15;10.10;99.90
24250;DHT22;12379;49.820;8.648;2023-05-02T02:49:47;10.00;99.90
24250;DHT22;12379;49.820;8.648;2023-05-02T02:52:35;10.00;99.90
24250;DHT22;12379;49.820;8.648;2023-05-02T02:55:13;10.20;99.90
24250;DHT22;12379;49.820;8.648;2023-05-02T02:57:50;10.10;99.90
24250;DHT22;12379;49.820;8.648;2023-05-02T03:00:21;10.00;99.90
24250;DHT22;12379;49.820;8.648;2023-05-02T03:02:49;10.20;99.90
24250;DHT22;12379;49.820;8.648;2023-05-02T03:05:18;10.20;99.90
24250;DHT22;12379;49.820;8.648;2023-05-02T03:07:44;10.00;99.90
24250;DHT22;12379;49.820;8.648;2023-05-02T03:10:09;10.00;99.90
24250;DHT22;12379;49.820;8.648;2023-05-02T03:12:36;10.00;99.90
24250;DHT22;12379;49.820;8.648;2023-05-02T03:15:38;9.90;99.90
24250;DHT22;12379;49.820;8.648;2023-05-02T03:18:12;9.90;99.90
24250;DHT22;12379;49.820;8.648;2023-05-02T03:20:37;9.90;99.90
24250;DHT22;12379;49.820;8.648;2023-05-02T03:23:03;9.80;99.90
24250;DHT22;12379;49.820;8.648;2023-05-02T03:25:28;9.80;99.90
24250;DHT22;12379;49.820;8.648;2023-05-02T03:27:56;9.80;99.90
24250;DHT22;12379;49.820;8.648;2023-05-02T03:30:22;9.80;99.90
24250;DHT22;12379;49.820;8.648;2023-05-02T03:32:47;9.70;99.90
24250;DHT22;12379;49.820;8.648;2023-05-02T03:35:13;9.60;99.90
24250;DHT22;12379;49.820;8.648;2023-05-02T03:37:39;9.50;99.90
24250;DHT22;12379;49.820;8.648;2023-05-02T03:40:05;9.40;99.90
24250;DHT22;12379;49.820;8.648;2023-05-02T03:42:32;9.40;99.90
24250;DHT22;12379;49.820;8.648;2023-05-02T03:44:58;9.40;99.90
24250;DHT22;12379;49.820;8.648;2023-05-02T03:47:23;9.50;99.90
24250;DHT22;12379;49.820;8.648;2023-05-02T03:49:49;9.40;99.90
24250;DHT22;12379;49.820;8.648;2023-05-02T03:52:16;9.30;99.90
24250;DHT22;12379;49.820;8.648;2023-05-02T03:54:42;9.30;99.90
24250;DHT22;12379;49.820;8.648;2023-05-02T03:57:08;9.40;99.90
24250;DHT22;12379;49.820;8.648;2023-05-02T03:59:33;9.50;99.90
24250;DHT22;12379;49.820;8.648;2023-05-02T04:01:59;9.60;99.90
24250;DHT22;12379;49.820;8.648;2023-05-02T04:04:25;9.70;99.90
24250;DHT22;12379;49.820;8.648;2023-05-02T04:06:50;9.70;99.90
24250;DHT22;12379;49.820;8.648;2023-05-02T04:09:16;9.60;99.90
24250;DHT22;12379;49.820;8.648;2023-05-02T04:11:41;9.60;99.90
24250;DHT22;12379;49.820;8.648;2023-05-02T04:14:07;9.70;99.90
24250;DHT22;12379;49.820;8.648;2023-05-02T04:16:32;9.80;99.90
24250;DHT22;12379;49.820;8.648;2023-05-02T04:18:58;9.80;99.90
24250;DHT22;12379;49.820;8.648;2023-05-02T04:21:24;9.80;99.90
24250;DHT22;12379;49.820;8.648;2023-05-02T04:23:49;9.80;99.90
24250;DHT22;12379;49.820;8.648;2023-05-02T04:26:15;9.90;99.90
24250;DHT22;12379;49.820;8.648;2023-05-02T04:28:41;10.00;99.90
24250;DHT22;12379;49.820;8.648;2023-05-02T04:31:06;10.00;99.90
24250;DHT22;12379;49.820;8.648;2023-05-02T04:33:32;10.00;99.90
24250;DHT22;12379;49.820;8.648;2023-05-02T04:35:57;10.20;99.90
24250;DHT22;12379;49.820;8.648;2023-05-02T04:38:23;10.20;99.90
24250;DHT22;12379;49.820;8.648;2023-05-02T04:40:51;10.30;99.90
24250;DHT22;12379;49.820;8.648;2023-05-02T04:43:17;10.30;99.90
24250;DHT22;12379;49.820;8.648;2023-05-02T04:45:42;10.40;99.90
24250;DHT22;12379;49.820;8.648;2023-05-02T04:48:08;10.50;99.90
24250;DHT22;12379;49.820;8.648;2023-05-02T04:50:33;10.50;99.90
24250;DHT22;12379;49.820;8.648;2023-05-02T04:52:59;10.60;99.90
24250;DHT22;12379;49.820;8.648;2023-05-02T04:55:25;10.60;99.90
24250;DHT22;12379;49.820;8.648;2023-05-02T04:57:50;10.70;99.90
24250;DHT22;12379;49.820;8.648;2023-05-02T05:00:16;10.80;99.90
24250;DHT22;12379;49.820;8.648;2023-05-02T05:02:41;10.90;99.90
24250;DHT22;12379;49.820;8.648;2023-05-02T05:05:07;10.90;99.90
24250;DHT22;12379;49.820;8.648;2023-05-02T05:07:33;11.00;99.90
24250;DHT22;12379;49.820;8.648;2023-05-02T05:09:59;11.10;99.90
24250;DHT22;12379;49.820;8.648;2023-05-02T05:12:24;11.20;99.90
24250;DHT22;12379;49.820;8.648;2023-05-02T05:14:50;11.40;99.90
24250;DHT22;12379;49.820;8.648;2023-05-02T05:17:15;11.50;99.90
24250;DHT22;12379;49.820;8.648;2023-05-02T05:19:41;11.60;99.90
24250;DHT22;12379;49.820;8.648;2023-05-02T05:22:07;11.80;99.90
24250;DHT22;12379;49.820;8.648;2023-05-02T05:24:32;11.90;99.90
24250;DHT22;12379;49.820;8.648;2023-05-02T05:26:58;12.10;99.90
24250;DHT22;12379;49.820;8.648;2023-05-02T05:29:23;12.30;99.90
24250;DHT22;12379;49.820;8.648;2023-05-02T05:31:49;12.30;99.90
24250;DHT22;12379;49.820;8.648;2023-05-02T05:34:14;12.40;99.90
24250;DHT22;12379;49.820;8.648;2023-05-02T05:36:40;12.50;99.90
24250;DHT22;12379;49.820;8.648;2023-05-02T05:39:06;12.50;99.90
24250;DHT22;12379;49.820;8.648;2023-05-02T05:41:32;12.50;99.90
24250;DHT22;12379;49.820;8.648;2023-05-02T05:43:58;12.60;99.90
24250;DHT22;12379;49.820;8.648;2023-05-02T05:46:24;12.50;99.90
24250;DHT22;12379;49.820;8.648;2023-05-02T05:48:49;12.50;99.90
24250;DHT22;12379;49.820;8.648;2023-05-02T05:51:15;12.50;99.90
24250;DHT22;12379;49.820;8.648;2023-05-02T05:53:40;12.50;99.90
24250;DHT22;12379;49.820;8.648;2023-05-02T05:56:12;12.60;99.90
24250;DHT22;12379;49.820;8.648;2023-05-02T05:58:39;12.70;99.90
24250;DHT22;12379;49.820;8.648;2023-05-02T06:01:08;12.70;99.90
24250;DHT22;12379;49.820;8.648;2023-05-02T06:03:34;12.80;99.90
24250;DHT22;12379;49.820;8.648;2023-05-02T06:05:59;12.90;99.90
24250;DHT22;12379;49.820;8.648;2023-05-02T06:08:25;12.90;99.90
24250;DHT22;12379;49.820;8.648;2023-05-02T06:10:50;12.90;99.90
24250;DHT22;12379;49.820;8.648;2023-05-02T06:13:16;13.00;99.90
24250;DHT22;12379;49.820;8.648;2023-05-02T06:15:41;13.00;99.90
24250;DHT22;12379;49.820;8.648;2023-05-02T06:18:07;13.00;99.90
24250;DHT22;12379;49.820;8.648;2023-05-02T06:20:35;13.00;99.90
24250;DHT22;12379;49.820;8.648;2023-05-02T06:23:00;13.20;99.90
24250;DHT22;12379;49.820;8.648;2023-05-02T06:25:26;13.50;99.90
24250;DHT22;12379;49.820;8.648;2023-05-02T06:27:51;13.70;99.90
24250;DHT22;12379;49.820;8.648;2023-05-02T06:30:17;13.80;99.90
24250;DHT22;12379;49.820;8.648;2023-05-02T06:32:42;13.80;99.90
24250;DHT22;12379;49.820;8.648;2023-05-02T06:35:09;13.80;99.90
24250;DHT22;12379;49.820;8.648;2023-05-02T06:37:35;13.90;99.90
24250;DHT22;12379;49.820;8.648;2023-05-02T06:40:01;14.10;99.90
24250;DHT22;12379;49.820;8.648;2023-05-02T06:42:27;14.40;99.90
24250;DHT22;12379;49.820;8.648;2023-05-02T06:44:52;14.30;99.90
24250;DHT22;12379;49.820;8.648;2023-05-02T06:47:18;14.50;99.90
24250;DHT22;12379;49.820;8.648;2023-05-02T06:49:43;14.90;99.90
24250;DHT22;12379;49.820;8.648;2023-05-02T06:52:09;15.20;99.90
24250;DHT22;12379;49.820;8.648;2023-05-02T06:54:35;15.20;99.90
24250;DHT22;12379;49.820;8.648;2023-05-02T06:57:00;15.10;99.90
24250;DHT22;12379;49.820;8.648;2023-05-02T06:59:26;15.10;99.90
24250;DHT22;12379;49.820;8.648;2023-05-02T07:01:52;15.80;99.90
24250;DHT22;12379;49.820;8.648;2023-05-02T07:04:17;16.00;99.90
24250;DHT22;12379;49.820;8.648;2023-05-02T07:06:43;16.10;99.90
24250;DHT22;12379;49.820;8.648;2023-05-02T07:09:09;16.30;99.90
24250;DHT22;12379;49.820;8.648;2023-05-02T07:11:36;16.00;99.90
24250;DHT22;12379;49.820;8.648;2023-05-02T07:14:01;15.90;99.90
24250;DHT22;12379;49.820;8.648;2023-05-02T07:16:27;15.80;99.90
24250;DHT22;12379;49.820;8.648;2023-05-02T07:18:52;15.50;99.90
24250;DHT22;12379;49.820;8.648;2023-05-02T07:21:18;15.40;99.90
24250;DHT22;12379;49.820;8.648;2023-05-02T07:23:43;15.50;99.90
24250;DHT22;12379;49.820;8.648;2023-05-02T07:26:09;15.60;99.90
24250;DHT22;12379;49.820;8.648;2023-05-02T07:28:34;15.70;99.90
24250;DHT22;12379;49.820;8.648;2023-05-02T07:31:00;15.80;99.90
24250;DHT22;12379;49.820;8.648;2023-05-02T07:33:25;16.10;99.90
24250;DHT22;12379;49.820;8.648;2023-05-02T07:35:51;16.10;99.90
24250;DHT22;12379;49.820;8.648;2023-05-02T07:38:16;15.70;99.90
24250;DHT22;12379;49.820;8.648;2023-05-02T07:40:42;15.50;99.90
24250;DHT22;12379;49.820;8.648;2023-05-02T07:43:08;15.40;99.90
24250;DHT22;12379;49.820;8.648;2023-05-02T07:45:34;15.40;99.90
24250;DHT22;12379;49.820;8.648;2023-05-02T07:48:00;15.70;99.90
24250;DHT22;12379;49.820;8.648;2023-05-02T07:50:25;15.70;99.90
24250;DHT22;12379;49.820;8.648;2023-05-02T07:52:51;15.60;99.90
24250;DHT22;12379;49.820;8.648;2023-05-02T07:55:17;15.50;99.90
24250;DHT22;12379;49.820;8.648;2023-05-02T07:57:43;15.40;99.90
24250;DHT22;12379;49.820;8.648;2023-05-02T08:00:09;15.30;99.90
24250;DHT22;12379;49.820;8.648;2023-05-02T08:02:35;15.10;99.90
24250;DHT22;12379;49.820;8.648;2023-05-02T08:05:02;15.10;99.90
24250;DHT22;12379;49.820;8.648;2023-05-02T08:07:27;15.10;99.90
24250;DHT22;12379;49.820;8.648;2023-05-02T08:09:53;14.80;99.90
24250;DHT22;12379;49.820;8.648;2023-05-02T08:12:18;14.70;99.90
24250;DHT22;12379;49.820;8.648;2023-05-02T08:14:44;14.70;99.90
24250;DHT22;12379;49.820;8.648;2023-05-02T08:17:10;14.70;99.90
24250;DHT22;12379;49.820;8.648;2023-05-02T08:19:35;14.80;99.90
24250;DHT22;12379;49.820;8.648;2023-05-02T08:22:01;14.90;99.90
24250;DHT22;12379;49.820;8.648;2023-05-02T08:24:26;14.90;99.90
24250;DHT22;12379;49.820;8.648;2023-05-02T08:26:52;15.00;99.90
24250;DHT22;12379;49.820;8.648;2023-05-02T08:29:17;15.00;99.90
24250;DHT22;12379;49.820;8.648;2023-05-02T08:31:43;15.10;99.90
24250;DHT22;12379;49.820;8.648;2023-05-02T08:34:09;15.20;99.90
24250;DHT22;12379;49.820;8.648;2023-05-02T08:36:34;15.20;99.90
24250;DHT22;12379;49.820;8.648;2023-05-02T08:39:01;15.30;99.90
24250;DHT22;12379;49.820;8.648;2023-05-02T08:41:28;15.30;99.90
24250;DHT22;12379;49.820;8.648;2023-05-02T08:43:55;15.30;99.90
24250;DHT22;12379;49.820;8.648;2023-05-02T08:46:22;15.10;99.90
24250;DHT22;12379;49.820;8.648;2023-05-02T08:48:48;15.10;99.90
24250;DHT22;12379;49.820;8.648;2023-05-02T08:51:15;15.10;99.90
24250;DHT22;12379;49.820;8.648;2023-05-02T08:53:41;15.10;99.90
24250;DHT22;12379;49.820;8.648;2023-05-02T08:56:08;14.80;99.90
24250;DHT22;12379;49.820;8.648;2023-05-02T08:58:36;14.70;99.90
24250;DHT22;12379;49.820;8.648;2023-05-02T09:01:03;14.60;99.90
24250;DHT22;12379;49.820;8.648;2023-05-02T09:03:34;14.60;99.90
24250;DHT22;12379;49.820;8.648;2023-05-02T09:08:31;14.70;99.90
24250;DHT22;12379;49.820;8.648;2023-05-02T09:10:57;14.70;99.90
24250;DHT22;12379;49.820;8.648;2023-05-02T09:13:30;14.90;99.90
24250;DHT22;12379;49.820;8.648;2023-05-02T09:16:08;14.90;99.90
24250;DHT22;12379;49.820;8.648;2023-05-02T09:18:45;15.20;99.90
24250;DHT22;12379;49.820;8.648;2023-05-02T09:21:21;15.20;99.90
24250;DHT22;12379;49.820;8.648;2023-05-02T09:23:55;15.10;99.90
24250;DHT22;12379;49.820;8.648;2023-05-02T09:26:25;15.20;99.90
24250;DHT22;12379;49.820;8.648;2023-05-02T09:28:54;15.40;99.90
24250;DHT22;12379;49.820;8.648;2023-05-02T09:31:25;15.60;99.90
24250;DHT22;12379;49.820;8.648;2023-05-02T09:33:51;15.80;99.90
24250;DHT22;12379;49.820;8.648;2023-05-02T09:36:18;15.80;99.90
24250;DHT22;12379;49.820;8.648;2023-05-02T09:38:46;15.90;99.90
24250;DHT22;12379;49.820;8.648;2023-05-02T09:41:12;16.30;99.90
24250;DHT22;12379;49.820;8.648;2023-05-02T09:43:38;16.30;99.90
24250;DHT22;12379;49.820;8.648;2023-05-02T09:46:06;16.10;99.90
24250;DHT22;12379;49.820;8.648;2023-05-02T09:48:50;15.80;99.90
24250;DHT22;12379;49.820;8.648;2023-05-02T09:51:16;15.80;99.90
24250;DHT22;12379;49.820;8.648;2023-05-02T09:53:43;15.90;99.90
24250;DHT22;12379;49.820;8.648;2023-05-02T09:56:09;15.80;99.90
24250;DHT22;12379;49.820;8.648;2023-05-02T09:58:35;15.50;99.90
24250;DHT22;12379;49.820;8.648;2023-05-02T10:01:01;15.50;99.90
24250;DHT22;12379;49.820;8.648;2023-05-02T10:03:36;15.50;99.90
24250;DHT22;12379;49.820;8.648;2023-05-02T10:06:02;15.50;99.90
24250;DHT22;12379;49.820;8.648;2023-05-02T10:08:29;15.60;99.90
24250;DHT22;12379;49.820;8.648;2023-05-02T10:10:58;15.70;99.90
24250;DHT22;12379;49.820;8.648;2023-05-02T10:13:26;15.60;99.90
24250;DHT22;12379;49.820;8.648;2023-05-02T10:16:04;15.70;99.90
24250;DHT22;12379;49.820;8.648;2023-05-02T10:18:42;15.90;99.90
24250;DHT22;12379;49.820;8.648;2023-05-02T10:21:18;16.10;99.90
24250;DHT22;12379;49.820;8.648;2023-05-02T10:23:45;16.30;99.90
24250;DHT22;12379;49.820;8.648;2023-05-02T10:26:15;16.10;99.90
24250;DHT22;12379;49.820;8.648;2023-05-02T10:28:41;16.00;99.90
24250;DHT22;12379;49.820;8.648;2023-05-02T10:31:12;16.40;99.90
24250;DHT22;12379;49.820;8.648;2023-05-02T10:33:38;16.70;99.90
24250;DHT22;12379;49.820;8.648;2023-05-02T10:36:06;17.30;99.90
24250;DHT22;12379;49.820;8.648;2023-05-02T10:38:32;18.00;99.90
24250;DHT22;12379;49.820;8.648;2023-05-02T10:41:02;18.30;99.10
24250;DHT22;12379;49.820;8.648;2023-05-02T10:43:34;17.60;99.80
24250;DHT22;12379;49.820;8.648;2023-05-02T10:46:01;17.40;99.80
24250;DHT22;12379;49.820;8.648;2023-05-02T10:48:29;17.50;99.40
24250;DHT22;12379;49.820;8.648;2023-05-02T10:50:57;17.90;99.20
24250;DHT22;12379;49.820;8.648;2023-05-02T10:56:07;18.70;97.40
24250;DHT22;12379;49.820;8.648;2023-05-02T10:58:33;19.00;96.30
24250;DHT22;12379;49.820;8.648;2023-05-02T11:03:59;18.10;97.20
24250;DHT22;12379;49.820;8.648;2023-05-02T11:06:26;17.60;98.10
24250;DHT22;12379;49.820;8.648;2023-05-02T11:09:05;17.20;98.90
24250;DHT22;12379;49.820;8.648;2023-05-02T11:11:43;17.20;99.00
24250;DHT22;12379;49.820;8.648;2023-05-02T11:14:10;16.90;99.60
24250;DHT22;12379;49.820;8.648;2023-05-02T11:19:24;16.90;99.10
24250;DHT22;12379;49.820;8.648;2023-05-02T11:21:50;17.20;99.70
24250;DHT22;12379;49.820;8.648;2023-05-02T11:24:40;17.40;99.30
24250;DHT22;12379;49.820;8.648;2023-05-02T11:30:06;18.00;97.60
24250;DHT22;12379;49.820;8.648;2023-05-02T11:37:54;17.00;99.60
24250;DHT22;12379;49.820;8.648;2023-05-02T11:40:19;16.70;99.90
24250;DHT22;12379;49.820;8.648;2023-05-02T11:42:46;17.00;99.90
24250;DHT22;12379;49.820;8.648;2023-05-02T11:45:11;17.40;99.30
24250;DHT22;12379;49.820;8.648;2023-05-02T11:47:37;17.90;97.70
24250;DHT22;12379;49.820;8.648;2023-05-02T11:50:04;17.80;97.30
24250;DHT22;12379;49.820;8.648;2023-05-02T11:52:29;17.80;96.20
24250;DHT22;12379;49.820;8.648;2023-05-02T11:54:56;18.00;95.50
24250;DHT22;12379;49.820;8.648;2023-05-02T11:57:22;18.00;93.30
24250;DHT22;12379;49.820;8.648;2023-05-02T11:59:51;17.60;94.00
24250;DHT22;12379;49.820;8.648;2023-05-02T12:02:17;17.30;94.60
24250;DHT22;12379;49.820;8.648;2023-05-02T12:04:43;17.60;95.40
24250;DHT22;12379;49.820;8.648;2023-05-02T12:07:09;18.10;94.60
24250;DHT22;12379;49.820;8.648;2023-05-02T12:09:35;18.50;93.40
24250;DHT22;12379;49.820;8.648;2023-05-02T12:12:00;18.30;93.20
24250;DHT22;12379;49.820;8.648;2023-05-02T12:14:29;18.40;93.20
24250;DHT22;12379;49.820;8.648;2023-05-02T12:16:56;18.60;93.30
24250;DHT22;12379;49.820;8.648;2023-05-02T12:19:22;18.30;93.50
24250;DHT22;12379;49.820;8.648;2023-05-02T12:21:48;18.20;94.20
24250;DHT22;12379;49.820;8.648;2023-05-02T12:24:15;17.90;94.20
24250;DHT22;12379;49.820;8.648;2023-05-02T12:26:40;17.90;94.90
24250;DHT22;12379;49.820;8.648;2023-05-02T12:29:06;18.20;94.20
24250;DHT22;12379;49.820;8.648;2023-05-02T12:31:34;18.50;93.40
24250;DHT22;12379;49.820;8.648;2023-05-02T12:34:00;18.70;93.00
24250;DHT22;12379;49.820;8.648;2023-05-02T12:36:26;18.70;92.40
24250;DHT22;12379;49.820;8.648;2023-05-02T12:38:58;18.40;92.20
24250;DHT22;12379;49.820;8.648;2023-05-02T12:41:36;18.20;92.40
24250;DHT22;12379;49.820;8.648;2023-05-02T12:44:02;18.00;92.60
24250;DHT22;12379;49.820;8.648;2023-05-02T12:46:28;18.00;92.50
24250;DHT22;12379;49.820;8.648;2023-05-02T12:49:07;18.00;93.10
24250;DHT22;12379;49.820;8.648;2023-05-02T12:51:37;18.40;92.50
24250;DHT22;12379;49.820;8.648;2023-05-02T12:54:04;18.50;92.30
24250;DHT22;12379;49.820;8.648;2023-05-02T12:56:40;18.80;90.80
24250;DHT22;12379;49.820;8.648;2023-05-02T12:59:07;19.00;90.00
24250;DHT22;12379;49.820;8.648;2023-05-02T13:01:33;19.00;90.20
24250;DHT22;12379;49.820;8.648;2023-05-02T13:03:59;18.80;87.40
24250;DHT22;12379;49.820;8.648;2023-05-02T13:06:25;18.60;88.40
24250;DHT22;12379;49.820;8.648;2023-05-02T13:08:50;18.60;89.00
24250;DHT22;12379;49.820;8.648;2023-05-02T13:11:16;18.50;88.70
24250;DHT22;12379;49.820;8.648;2023-05-02T13:13:42;18.70;88.90
24250;DHT22;12379;49.820;8.648;2023-05-02T13:16:08;18.50;88.70
24250;DHT22;12379;49.820;8.648;2023-05-02T13:18:33;18.40;88.70
24250;DHT22;12379;49.820;8.648;2023-05-02T13:20:59;18.40;90.10
24250;DHT22;12379;49.820;8.648;2023-05-02T13:23:25;18.30;90.30
24250;DHT22;12379;49.820;8.648;2023-05-02T13:25:50;18.10;92.50
24250;DHT22;12379;49.820;8.648;2023-05-02T13:28:16;17.90;94.00
24250;DHT22;12379;49.820;8.648;2023-05-02T13:30:41;17.60;95.30
24250;DHT22;12379;49.820;8.648;2023-05-02T13:33:07;17.50;96.40
24250;DHT22;12379;49.820;8.648;2023-05-02T13:35:33;17.30;97.00
24250;DHT22;12379;49.820;8.648;2023-05-02T13:37:58;17.30;97.50
24250;DHT22;12379;49.820;8.648;2023-05-02T13:40:24;17.30;98.00
24250;DHT22;12379;49.820;8.648;2023-05-02T13:42:49;17.30;97.80
24250;DHT22;12379;49.820;8.648;2023-05-02T13:45:18;17.10;98.00
24250;DHT22;12379;49.820;8.648;2023-05-02T13:47:44;17.20;97.30
24250;DHT22;12379;49.820;8.648;2023-05-02T13:50:09;17.50;96.50
24250;DHT22;12379;49.820;8.648;2023-05-02T13:52:36;17.60;94.10
24250;DHT22;12379;49.820;8.648;2023-05-02T13:55:02;17.90;92.70
24250;DHT22;12379;49.820;8.648;2023-05-02T13:57:27;18.30;93.00
24250;DHT22;12379;49.820;8.648;2023-05-02T13:59:53;18.20;91.60
24250;DHT22;12379;49.820;8.648;2023-05-02T14:02:19;18.50;92.30
24250;DHT22;12379;49.820;8.648;2023-05-02T14:04:45;18.70;92.20
24250;DHT22;12379;49.820;8.648;2023-05-02T14:07:10;18.90;91.80
24250;DHT22;12379;49.820;8.648;2023-05-02T14:09:36;19.10;90.30
24250;DHT22;12379;49.820;8.648;2023-05-02T14:12:01;19.30;89.20
24250;DHT22;12379;49.820;8.648;2023-05-02T14:14:27;19.00;88.10
24250;DHT22;12379;49.820;8.648;2023-05-02T14:16:53;18.70;89.90
24250;DHT22;12379;49.820;8.648;2023-05-02T14:19:18;18.90;90.10
24250;DHT22;12379;49.820;8.648;2023-05-02T14:21:44;18.80;90.30
24250;DHT22;12379;49.820;8.648;2023-05-02T14:24:09;18.70;90.80
24250;DHT22;12379;49.820;8.648;2023-05-02T14:26:36;18.40;90.80
24250;DHT22;12379;49.820;8.648;2023-05-02T14:29:02;18.00;91.90
24250;DHT22;12379;49.820;8.648;2023-05-02T14:31:28;17.70;93.20
24250;DHT22;12379;49.820;8.648;2023-05-02T14:33:53;17.70;93.60
24250;DHT22;12379;49.820;8.648;2023-05-02T14:36:19;17.90;94.30
24250;DHT22;12379;49.820;8.648;2023-05-02T14:38:44;18.00;94.50
24250;DHT22;12379;49.820;8.648;2023-05-02T14:41:10;18.00;94.20
24250;DHT22;12379;49.820;8.648;2023-05-02T14:43:35;18.00;94.90
24250;DHT22;12379;49.820;8.648;2023-05-02T14:46:01;17.90;94.60
24250;DHT22;12379;49.820;8.648;2023-05-02T14:48:28;17.70;95.30
24250;DHT22;12379;49.820;8.648;2023-05-02T14:50:54;17.60;95.90
24250;DHT22;12379;49.820;8.648;2023-05-02T14:53:20;17.50;95.80
24250;DHT22;12379;49.820;8.648;2023-05-02T14:55:46;17.40;95.20
24250;DHT22;12379;49.820;8.648;2023-05-02T14:58:12;17.40;95.80
24250;DHT22;12379;49.820;8.648;2023-05-02T15:00:43;17.50;96.00
24250;DHT22;12379;49.820;8.648;2023-05-02T15:03:08;17.60;94.90
24250;DHT22;12379;49.820;8.648;2023-05-02T15:05:35;17.70;94.20
24250;DHT22;12379;49.820;8.648;2023-05-02T15:08:04;17.50;93.70
24250;DHT22;12379;49.820;8.648;2023-05-02T15:10:30;17.50;94.00
24250;DHT22;12379;49.820;8.648;2023-05-02T15:12:58;17.70;94.20
24250;DHT22;12379;49.820;8.648;2023-05-02T15:15:25;17.90;95.00
24250;DHT22;12379;49.820;8.648;2023-05-02T15:17:50;18.00;93.70
24250;DHT22;12379;49.820;8.648;2023-05-02T15:20:17;17.80;92.80
24250;DHT22;12379;49.820;8.648;2023-05-02T15:22:42;17.70;92.40
24250;DHT22;12379;49.820;8.648;2023-05-02T15:25:08;17.60;91.50
24250;DHT22;12379;49.820;8.648;2023-05-02T15:27:34;17.50;92.10
24250;DHT22;12379;49.820;8.648;2023-05-02T15:30:00;17.40;91.90
24250;DHT22;12379;49.820;8.648;2023-05-02T15:32:28;17.40;92.10
24250;DHT22;12379;49.820;8.648;2023-05-02T15:34:54;17.40;92.30
24250;DHT22;12379;49.820;8.648;2023-05-02T15:37:20;17.50;92.30
24250;DHT22;12379;49.820;8.648;2023-05-02T15:39:45;17.40;91.70
24250;DHT22;12379;49.820;8.648;2023-05-02T15:42:11;17.40;92.50
24250;DHT22;12379;49.820;8.648;2023-05-02T15:44:37;17.50;91.90
24250;DHT22;12379;49.820;8.648;2023-05-02T15:47:03;17.50;92.00
24250;DHT22;12379;49.820;8.648;2023-05-02T15:49:29;17.60;91.50
24250;DHT22;12379;49.820;8.648;2023-05-02T15:51:58;17.50;91.30
24250;DHT22;12379;49.820;8.648;2023-05-02T15:54:24;17.30;91.30
24250;DHT22;12379;49.820;8.648;2023-05-02T15:56:49;17.30;91.70
24250;DHT22;12379;49.820;8.648;2023-05-02T15:59:15;17.20;90.80
24250;DHT22;12379;49.820;8.648;2023-05-02T16:01:40;17.20;91.20
24250;DHT22;12379;49.820;8.648;2023-05-02T16:04:06;17.10;91.00
24250;DHT22;12379;49.820;8.648;2023-05-02T16:06:34;16.90;90.70